sensor_id;sensor_type;location;lat;lon;timestamp;P1;durP1;ratioP1;P2;durP2;ratioP2
59786;SDS011;45672;51.612;5.536;2023-10-09T01:11:56;23.75;;;16.00;;
59786;SDS011;45672;51.612;5.536;2023-10-09T01:14:24;24.80;;;16.85;;
59786;SDS011;45672;51.612;5.536;2023-10-09T01:16:49;27.92;;;17.25;;
59786;SDS011;45672;51.612;5.536;2023-10-09T01:19:19;29.77;;;16.38;;
59786;SDS011;45672;51.612;5.536;2023-10-09T01:21:45;25.45;;;16.60;;
59786;SDS011;45672;51.612;5.536;2023-10-09T01:24:11;27.65;;;17.83;;
59786;SDS011;45672;51.612;5.536;2023-10-09T01:26:40;25.48;;;16.40;;
59786;SDS011;45672;51.612;5.536;2023-10-09T01:29:13;33.78;;;17.50;;
59786;SDS011;45672;51.612;5.536;2023-10-09T01:31:41;24.17;;;15.90;;
59786;SDS011;45672;51.612;5.536;2023-10-09T01:34:17;25.48;;;16.33;;
59786;SDS011;45672;51.612;5.536;2023-10-09T01:36:43;24.63;;;16.65;;
59786;SDS011;45672;51.612;5.536;2023-10-09T01:39:09;24.63;;;16.17;;
59786;SDS011;45672;51.612;5.536;2023-10-09T01:41:46;24.58;;;16.63;;
59786;SDS011;45672;51.612;5.536;2023-10-09T01:44:12;25.05;;;15.93;;
59786;SDS011;45672;51.612;5.536;2023-10-09T01:46:41;24.25;;;15.73;;
59786;SDS011;45672;51.612;5.536;2023-10-09T01:49:07;23.48;;;15.43;;
59786;SDS011;45672;51.612;5.536;2023-10-09T01:51:42;23.52;;;15.30;;
59786;SDS011;45672;51.612;5.536;2023-10-09T01:54:08;23.58;;;14.88;;
59786;SDS011;45672;51.612;5.536;2023-10-09T01:56:34;24.70;;;15.70;;
59786;SDS011;45672;51.612;5.536;2023-10-09T01:59:03;24.70;;;16.15;;
59786;SDS011;45672;51.612;5.536;2023-10-09T02:01:31;24.45;;;15.88;;
59786;SDS011;45672;51.612;5.536;2023-10-09T02:03:57;22.98;;;15.32;;
59786;SDS011;45672;51.612;5.536;2023-10-09T02:06:30;24.25;;;14.68;;
59786;SDS011;45672;51.612;5.536;2023-10-09T02:08:57;25.35;;;16.17;;
59786;SDS011;45672;51.612;5.536;2023-10-09T02:11:24;22.63;;;15.40;;
59786;SDS011;45672;51.612;5.536;2023-10-09T02:14:02;24.70;;;15.45;;
59786;SDS011;45672;51.612;5.536;2023-10-09T02:16:30;25.05;;;15.90;;
59786;SDS011;45672;51.612;5.536;2023-10-09T02:19:06;31.65;;;16.83;;
59786;SDS011;45672;51.612;5.536;2023-10-09T02:21:33;23.15;;;15.95;;
59786;SDS011;45672;51.612;5.536;2023-10-09T02:24:00;24.88;;;14.90;;
59786;SDS011;45672;51.612;5.536;2023-10-09T02:26:31;20.88;;;15.48;;
59786;SDS011;45672;51.612;5.536;2023-10-09T02:29:25;30.08;;;16.70;;
59786;SDS011;45672;51.612;5.536;2023-10-09T02:31:51;26.58;;;16.23;;
59786;SDS011;45672;51.612;5.536;2023-10-09T02:34:17;26.45;;;16.00;;
59786;SDS011;45672;51.612;5.536;2023-10-09T02:36:50;22.45;;;15.73;;
59786;SDS011;45672;51.612;5.536;2023-10-09T02:39:23;24.15;;;15.98;;
59786;SDS011;45672;51.612;5.536;2023-10-09T02:41:52;22.77;;;16.20;;
59786;SDS011;45672;51.612;5.536;2023-10-09T02:44:23;25.45;;;16.02;;
59786;SDS011;45672;51.612;5.536;2023-10-09T02:46:56;25.48;;;15.30;;
59786;SDS011;45672;51.612;5.536;2023-10-09T02:49:23;29.65;;;16.13;;
59786;SDS011;45672;51.612;5.536;2023-10-09T02:51:49;23.73;;;16.60;;
59786;SDS011;45672;51.612;5.536;2023-10-09T02:54:18;23.08;;;15.23;;
59786;SDS011;45672;51.612;5.536;2023-10-09T02:56:47;24.13;;;15.52;;
59786;SDS011;45672;51.612;5.536;2023-10-09T02:59:21;20.35;;;14.77;;
59786;SDS011;45672;51.612;5.536;2023-10-09T03:01:47;21.05;;;14.90;;
59786;SDS011;45672;51.612;5.536;2023-10-09T03:04:13;22.58;;;16.05;;
59786;SDS011;45672;51.612;5.536;2023-10-09T03:06:39;23.80;;;15.63;;
59786;SDS011;45672;51.612;5.536;2023-10-09T03:09:14;24.15;;;16.13;;
59786;SDS011;45672;51.612;5.536;2023-10-09T03:11:46;30.90;;;16.35;;
59786;SDS011;45672;51.612;5.536;2023-10-09T03:14:18;24.38;;;16.10;;
59786;SDS011;45672;51.612;5.536;2023-10-09T03:16:51;27.85;;;16.30;;
59786;SDS011;45672;51.612;5.536;2023-10-09T03:19:17;26.35;;;15.95;;
59786;SDS011;45672;51.612;5.536;2023-10-09T03:21:42;23.38;;;15.80;;
59786;SDS011;45672;51.612;5.536;2023-10-09T03:24:07;25.70;;;16.05;;
59786;SDS011;45672;51.612;5.536;2023-10-09T03:26:33;24.33;;;15.82;;
59786;SDS011;45672;51.612;5.536;2023-10-09T03:28:59;21.15;;;16.13;;
59786;SDS011;45672;51.612;5.536;2023-10-09T03:31:26;26.55;;;15.50;;
59786;SDS011;45672;51.612;5.536;2023-10-09T03:33:55;25.02;;;16.00;;
59786;SDS011;45672;51.612;5.536;2023-10-09T03:36:21;22.88;;;15.75;;
59786;SDS011;45672;51.612;5.536;2023-10-09T03:38:46;24.98;;;16.15;;
59786;SDS011;45672;51.612;5.536;2023-10-09T03:41:11;27.38;;;16.00;;
59786;SDS011;45672;51.612;5.536;2023-10-09T03:43:39;25.63;;;16.27;;
59786;SDS011;45672;51.612;5.536;2023-10-09T03:46:07;22.95;;;15.27;;
59786;SDS011;45672;51.612;5.536;2023-10-09T03:48:59;24.10;;;14.30;;
59786;SDS011;45672;51.612;5.536;2023-10-09T03:51:35;26.10;;;15.25;;
59786;SDS011;45672;51.612;5.536;2023-10-09T03:54:02;24.08;;;15.32;;
59786;SDS011;45672;51.612;5.536;2023-10-09T03:56:32;22.48;;;15.77;;
59786;SDS011;45672;51.612;5.536;2023-10-09T03:58:57;25.17;;;15.45;;
59786;SDS011;45672;51.612;5.536;2023-10-09T04:01:23;25.88;;;14.88;;
59786;SDS011;45672;51.612;5.536;2023-10-09T04:03:53;26.00;;;14.60;;
59786;SDS011;45672;51.612;5.536;2023-10-09T04:06:25;24.17;;;15.48;;
59786;SDS011;45672;51.612;5.536;2023-10-09T04:11:24;27.00;;;14.73;;
59786;SDS011;45672;51.612;5.536;2023-10-09T04:13:49;23.77;;;15.35;;
59786;SDS011;45672;51.612;5.536;2023-10-09T04:16:17;24.80;;;15.45;;
59786;SDS011;45672;51.612;5.536;2023-10-09T04:18:55;29.00;;;16.35;;
59786;SDS011;45672;51.612;5.536;2023-10-09T04:21:24;26.17;;;16.45;;
59786;SDS011;45672;51.612;5.536;2023-10-09T04:23:59;24.10;;;15.55;;
59786;SDS011;45672;51.612;5.536;2023-10-09T04:26:48;27.05;;;16.20;;
59786;SDS011;45672;51.612;5.536;2023-10-09T04:29:19;25.25;;;15.90;;
59786;SDS011;45672;51.612;5.536;2023-10-09T04:31:53;24.67;;;15.13;;
59786;SDS011;45672;51.612;5.536;2023-10-09T04:34:22;23.52;;;15.10;;
59786;SDS011;45672;51.612;5.536;2023-10-09T04:36:48;29.38;;;15.30;;
59786;SDS011;45672;51.612;5.536;2023-10-09T04:39:15;25.67;;;15.00;;
59786;SDS011;45672;51.612;5.536;2023-10-09T04:41:55;24.77;;;15.45;;
59786;SDS011;45672;51.612;5.536;2023-10-09T04:44:39;24.70;;;15.60;;
59786;SDS011;45672;51.612;5.536;2023-10-09T04:47:26;24.15;;;15.55;;
59786;SDS011;45672;51.612;5.536;2023-10-09T04:52:48;32.80;;;15.98;;
59786;SDS011;45672;51.612;5.536;2023-10-09T04:55:16;26.58;;;16.30;;
59786;SDS011;45672;51.612;5.536;2023-10-09T04:57:45;22.48;;;15.93;;
59786;SDS011;45672;51.612;5.536;2023-10-09T05:02:59;22.98;;;14.82;;
59786;SDS011;45672;51.612;5.536;2023-10-09T05:05:36;24.83;;;15.85;;
59786;SDS011;45672;51.612;5.536;2023-10-09T05:08:14;29.20;;;15.48;;
59786;SDS011;45672;51.612;5.536;2023-10-09T05:10:54;25.95;;;16.25;;
59786;SDS011;45672;51.612;5.536;2023-10-09T05:16:08;25.75;;;15.40;;
59786;SDS011;45672;51.612;5.536;2023-10-09T05:18:43;25.70;;;15.63;;
59786;SDS011;45672;51.612;5.536;2023-10-09T05:21:24;25.67;;;16.23;;
59786;SDS011;45672;51.612;5.536;2023-10-09T05:24:10;23.92;;;15.80;;
59786;SDS011;45672;51.612;5.536;2023-10-09T05:26:37;20.50;;;15.05;;
59786;SDS011;45672;51.612;5.536;2023-10-09T05:29:09;25.55;;;15.52;;
59786;SDS011;45672;51.612;5.536;2023-10-09T05:31:52;24.77;;;15.38;;
59786;SDS011;45672;51.612;5.536;2023-10-09T05:34:36;24.15;;;15.70;;
59786;SDS011;45672;51.612;5.536;2023-10-09T05:37:20;23.98;;;15.43;;
59786;SDS011;45672;51.612;5.536;2023-10-09T05:39:51;24.90;;;16.27;;
59786;SDS011;45672;51.612;5.536;2023-10-09T05:42:27;28.80;;;16.85;;
59786;SDS011;45672;51.612;5.536;2023-10-09T05:45:14;27.25;;;16.98;;
59786;SDS011;45672;51.612;5.536;2023-10-09T05:47:59;25.83;;;16.17;;
59786;SDS011;45672;51.612;5.536;2023-10-09T05:50:51;26.05;;;16.90;;
59786;SDS011;45672;51.612;5.536;2023-10-09T05:53:34;26.42;;;17.45;;
59786;SDS011;45672;51.612;5.536;2023-10-09T05:56:08;28.42;;;16.67;;
59786;SDS011;45672;51.612;5.536;2023-10-09T05:58:52;27.35;;;16.80;;
59786;SDS011;45672;51.612;5.536;2023-10-09T06:01:36;30.02;;;17.13;;
59786;SDS011;45672;51.612;5.536;2023-10-09T06:04:20;25.92;;;16.73;;
59786;SDS011;45672;51.612;5.536;2023-10-09T06:06:45;27.35;;;17.98;;
59786;SDS011;45672;51.612;5.536;2023-10-09T06:09:20;26.30;;;17.35;;
59786;SDS011;45672;51.612;5.536;2023-10-09T06:11:46;30.67;;;17.88;;
59786;SDS011;45672;51.612;5.536;2023-10-09T06:14:18;28.15;;;17.35;;
59786;SDS011;45672;51.612;5.536;2023-10-09T06:17:10;26.08;;;18.08;;
59786;SDS011;45672;51.612;5.536;2023-10-09T06:19:38;23.02;;;16.52;;
59786;SDS011;45672;51.612;5.536;2023-10-09T06:22:09;25.95;;;16.88;;
59786;SDS011;45672;51.612;5.536;2023-10-09T06:25:04;30.85;;;17.95;;
59786;SDS011;45672;51.612;5.536;2023-10-09T06:27:37;23.05;;;17.17;;
59786;SDS011;45672;51.612;5.536;2023-10-09T06:30:12;28.25;;;17.00;;
59786;SDS011;45672;51.612;5.536;2023-10-09T06:32:37;25.90;;;17.02;;
59786;SDS011;45672;51.612;5.536;2023-10-09T06:35:10;24.65;;;17.25;;
59786;SDS011;45672;51.612;5.536;2023-10-09T06:37:42;29.75;;;18.33;;
59786;SDS011;45672;51.612;5.536;2023-10-09T06:40:28;29.35;;;17.75;;
59786;SDS011;45672;51.612;5.536;2023-10-09T06:43:04;33.30;;;19.30;;
59786;SDS011;45672;51.612;5.536;2023-10-09T06:45:41;34.80;;;18.02;;
59786;SDS011;45672;51.612;5.536;2023-10-09T06:48:10;30.98;;;17.33;;
59786;SDS011;45672;51.612;5.536;2023-10-09T06:50:57;30.40;;;17.90;;
59786;SDS011;45672;51.612;5.536;2023-10-09T06:53:58;28.17;;;18.00;;
59786;SDS011;45672;51.612;5.536;2023-10-09T06:56:29;30.70;;;18.40;;
59786;SDS011;45672;51.612;5.536;2023-10-09T06:58:56;31.38;;;18.17;;
59786;SDS011;45672;51.612;5.536;2023-10-09T07:01:25;30.67;;;17.65;;
59786;SDS011;45672;51.612;5.536;2023-10-09T07:03:58;30.58;;;17.95;;
59786;SDS011;45672;51.612;5.536;2023-10-09T07:06:35;33.33;;;19.65;;
59786;SDS011;45672;51.612;5.536;2023-10-09T07:09:01;31.80;;;18.23;;
59786;SDS011;45672;51.612;5.536;2023-10-09T07:11:37;35.75;;;18.90;;
59786;SDS011;45672;51.612;5.536;2023-10-09T07:16:54;30.08;;;18.63;;
59786;SDS011;45672;51.612;5.536;2023-10-09T07:19:30;28.55;;;18.83;;
59786;SDS011;45672;51.612;5.536;2023-10-09T07:21:58;31.40;;;18.80;;
59786;SDS011;45672;51.612;5.536;2023-10-09T07:24:29;32.35;;;19.10;;
59786;SDS011;45672;51.612;5.536;2023-10-09T07:27:08;34.03;;;18.20;;
59786;SDS011;45672;51.612;5.536;2023-10-09T07:29:34;29.63;;;18.05;;
59786;SDS011;45672;51.612;5.536;2023-10-09T07:32:12;29.08;;;18.17;;
59786;SDS011;45672;51.612;5.536;2023-10-09T07:34:50;31.30;;;18.45;;
59786;SDS011;45672;51.612;5.536;2023-10-09T07:37:27;32.67;;;18.83;;
59786;SDS011;45672;51.612;5.536;2023-10-09T07:40:01;30.52;;;18.17;;
59786;SDS011;45672;51.612;5.536;2023-10-09T07:42:32;30.48;;;18.42;;
59786;SDS011;45672;51.612;5.536;2023-10-09T07:45:06;28.38;;;17.58;;
59786;SDS011;45672;51.612;5.536;2023-10-09T07:47:47;32.95;;;18.27;;
59786;SDS011;45672;51.612;5.536;2023-10-09T07:50:25;33.70;;;18.30;;
59786;SDS011;45672;51.612;5.536;2023-10-09T07:52:55;33.03;;;21.58;;
59786;SDS011;45672;51.612;5.536;2023-10-09T07:55:40;34.85;;;19.52;;
59786;SDS011;45672;51.612;5.536;2023-10-09T07:58:10;29.73;;;19.02;;
59786;SDS011;45672;51.612;5.536;2023-10-09T08:00:36;31.27;;;18.83;;
59786;SDS011;45672;51.612;5.536;2023-10-09T08:03:22;28.00;;;18.63;;
59786;SDS011;45672;51.612;5.536;2023-10-09T08:05:51;33.08;;;18.13;;
59786;SDS011;45672;51.612;5.536;2023-10-09T08:08:19;36.05;;;18.50;;
59786;SDS011;45672;51.612;5.536;2023-10-09T08:10:53;33.65;;;17.73;;
59786;SDS011;45672;51.612;5.536;2023-10-09T08:13:37;31.00;;;17.98;;
59786;SDS011;45672;51.612;5.536;2023-10-09T08:16:28;25.15;;;17.80;;
59786;SDS011;45672;51.612;5.536;2023-10-09T08:19:03;29.67;;;18.38;;
59786;SDS011;45672;51.612;5.536;2023-10-09T08:21:48;34.55;;;17.63;;
59786;SDS011;45672;51.612;5.536;2023-10-09T08:24:33;28.58;;;16.95;;
59786;SDS011;45672;51.612;5.536;2023-10-09T08:27:06;30.00;;;17.95;;
59786;SDS011;45672;51.612;5.536;2023-10-09T08:29:50;26.33;;;18.35;;
59786;SDS011;45672;51.612;5.536;2023-10-09T08:32:36;30.80;;;18.48;;
59786;SDS011;45672;51.612;5.536;2023-10-09T08:35:07;28.30;;;17.67;;
59786;SDS011;45672;51.612;5.536;2023-10-09T08:37:52;30.60;;;18.38;;
59786;SDS011;45672;51.612;5.536;2023-10-09T08:40:18;36.15;;;18.30;;
59786;SDS011;45672;51.612;5.536;2023-10-09T08:42:48;35.50;;;18.38;;
59786;SDS011;45672;51.612;5.536;2023-10-09T08:45:21;35.03;;;18.13;;
59786;SDS011;45672;51.612;5.536;2023-10-09T08:47:55;39.33;;;18.77;;
59786;SDS011;45672;51.612;5.536;2023-10-09T08:50:21;29.73;;;17.50;;
59786;SDS011;45672;51.612;5.536;2023-10-09T08:52:50;31.27;;;17.27;;
59786;SDS011;45672;51.612;5.536;2023-10-09T08:55:16;25.92;;;17.20;;
59786;SDS011;45672;51.612;5.536;2023-10-09T08:57:42;29.60;;;16.38;;
59786;SDS011;45672;51.612;5.536;2023-10-09T09:00:16;27.08;;;17.42;;
59786;SDS011;45672;51.612;5.536;2023-10-09T09:02:47;25.20;;;15.68;;
59786;SDS011;45672;51.612;5.536;2023-10-09T09:05:21;25.63;;;14.88;;
59786;SDS011;45672;51.612;5.536;2023-10-09T09:07:48;26.30;;;15.80;;
59786;SDS011;45672;51.612;5.536;2023-10-09T09:10:14;26.70;;;15.32;;
59786;SDS011;45672;51.612;5.536;2023-10-09T09:12:45;26.70;;;15.93;;
59786;SDS011;45672;51.612;5.536;2023-10-09T09:15:15;27.88;;;15.23;;
59786;SDS011;45672;51.612;5.536;2023-10-09T09:17:44;26.70;;;15.55;;
59786;SDS011;45672;51.612;5.536;2023-10-09T09:20:23;24.42;;;15.43;;
59786;SDS011;45672;51.612;5.536;2023-10-09T09:22:56;23.48;;;14.60;;
59786;SDS011;45672;51.612;5.536;2023-10-09T09:25:23;26.15;;;15.05;;
59786;SDS011;45672;51.612;5.536;2023-10-09T09:27:49;23.80;;;14.70;;
59786;SDS011;45672;51.612;5.536;2023-10-09T09:30:26;24.15;;;14.85;;
59786;SDS011;45672;51.612;5.536;2023-10-09T09:33:02;27.88;;;15.02;;
59786;SDS011;45672;51.612;5.536;2023-10-09T09:36:00;23.48;;;15.15;;
59786;SDS011;45672;51.612;5.536;2023-10-09T09:38:30;25.63;;;15.63;;
59786;SDS011;45672;51.612;5.536;2023-10-09T09:41:26;22.73;;;14.88;;
59786;SDS011;45672;51.612;5.536;2023-10-09T09:43:55;23.73;;;15.35;;
59786;SDS011;45672;51.612;5.536;2023-10-09T09:46:25;25.92;;;15.65;;
59786;SDS011;45672;51.612;5.536;2023-10-09T09:48:59;30.30;;;15.95;;
59786;SDS011;45672;51.612;5.536;2023-10-09T09:51:29;26.15;;;16.05;;
59786;SDS011;45672;51.612;5.536;2023-10-09T09:53:55;22.77;;;15.90;;
59786;SDS011;45672;51.612;5.536;2023-10-09T09:56:21;24.15;;;16.00;;
59786;SDS011;45672;51.612;5.536;2023-10-09T09:58:50;22.73;;;15.88;;
59786;SDS011;45672;51.612;5.536;2023-10-09T10:01:22;28.40;;;15.50;;
59786;SDS011;45672;51.612;5.536;2023-10-09T10:04:01;26.65;;;16.13;;
59786;SDS011;45672;51.612;5.536;2023-10-09T10:06:33;22.40;;;14.40;;
59786;SDS011;45672;51.612;5.536;2023-10-09T10:08:59;26.95;;;16.15;;
59786;SDS011;45672;51.612;5.536;2023-10-09T10:11:43;29.23;;;16.85;;
59786;SDS011;45672;51.612;5.536;2023-10-09T10:14:19;30.70;;;16.67;;
59786;SDS011;45672;51.612;5.536;2023-10-09T10:17:08;25.00;;;16.58;;
59786;SDS011;45672;51.612;5.536;2023-10-09T10:22:26;30.50;;;16.55;;
59786;SDS011;45672;51.612;5.536;2023-10-09T10:24:53;29.45;;;17.00;;
59786;SDS011;45672;51.612;5.536;2023-10-09T10:27:20;30.10;;;16.13;;
59786;SDS011;45672;51.612;5.536;2023-10-09T10:32:53;24.83;;;15.98;;
59786;SDS011;45672;51.612;5.536;2023-10-09T10:35:19;24.30;;;16.85;;
59786;SDS011;45672;51.612;5.536;2023-10-09T10:37:57;30.63;;;16.83;;
59786;SDS011;45672;51.612;5.536;2023-10-09T10:40:36;27.27;;;16.05;;
59786;SDS011;45672;51.612;5.536;2023-10-09T10:43:17;31.10;;;16.35;;
59786;SDS011;45672;51.612;5.536;2023-10-09T10:46:03;26.90;;;16.35;;
59786;SDS011;45672;51.612;5.536;2023-10-09T10:48:33;25.70;;;15.70;;
59786;SDS011;45672;51.612;5.536;2023-10-09T10:51:03;25.80;;;15.32;;
59786;SDS011;45672;51.612;5.536;2023-10-09T10:53:29;27.48;;;16.15;;
59786;SDS011;45672;51.612;5.536;2023-10-09T10:56:04;24.92;;;15.38;;
59786;SDS011;45672;51.612;5.536;2023-10-09T10:58:42;21.85;;;15.10;;
59786;SDS011;45672;51.612;5.536;2023-10-09T11:01:20;24.35;;;14.82;;
59786;SDS011;45672;51.612;5.536;2023-10-09T11:03:51;20.93;;;13.23;;
59786;SDS011;45672;51.612;5.536;2023-10-09T11:06:25;21.58;;;13.35;;
59786;SDS011;45672;51.612;5.536;2023-10-09T11:09:01;23.27;;;13.38;;
59786;SDS011;45672;51.612;5.536;2023-10-09T11:11:50;23.65;;;13.20;;
59786;SDS011;45672;51.612;5.536;2023-10-09T11:14:20;21.20;;;13.10;;
59786;SDS011;45672;51.612;5.536;2023-10-09T11:16:48;22.33;;;12.82;;
59786;SDS011;45672;51.612;5.536;2023-10-09T11:19:22;23.85;;;12.05;;
59786;SDS011;45672;51.612;5.536;2023-10-09T11:21:55;18.92;;;12.25;;
59786;SDS011;45672;51.612;5.536;2023-10-09T11:24:30;19.10;;;12.52;;
59786;SDS011;45672;51.612;5.536;2023-10-09T11:26:59;21.20;;;12.95;;
59786;SDS011;45672;51.612;5.536;2023-10-09T11:29:32;21.77;;;12.15;;
59786;SDS011;45672;51.612;5.536;2023-10-09T11:32:07;21.48;;;10.95;;
59786;SDS011;45672;51.612;5.536;2023-10-09T11:34:42;16.08;;;10.45;;
59786;SDS011;45672;51.612;5.536;2023-10-09T11:37:17;17.50;;;11.18;;
59786;SDS011;45672;51.612;5.536;2023-10-09T11:39:55;18.05;;;10.98;;
59786;SDS011;45672;51.612;5.536;2023-10-09T11:42:21;23.42;;;11.77;;
59786;SDS011;45672;51.612;5.536;2023-10-09T11:45:20;17.13;;;10.50;;
59786;SDS011;45672;51.612;5.536;2023-10-09T11:47:53;18.48;;;10.38;;
59786;SDS011;45672;51.612;5.536;2023-10-09T11:53:14;17.75;;;10.93;;
59786;SDS011;45672;51.612;5.536;2023-10-09T11:55:48;16.83;;;10.38;;
59786;SDS011;45672;51.612;5.536;2023-10-09T11:58:15;18.35;;;10.35;;
59786;SDS011;45672;51.612;5.536;2023-10-09T12:00:48;16.50;;;10.55;;
59786;SDS011;45672;51.612;5.536;2023-10-09T12:03:14;16.40;;;9.82;;
59786;SDS011;45672;51.612;5.536;2023-10-09T12:05:40;22.50;;;9.30;;
59786;SDS011;45672;51.612;5.536;2023-10-09T12:08:09;18.55;;;8.98;;
59786;SDS011;45672;51.612;5.536;2023-10-09T12:10:36;17.95;;;9.48;;
59786;SDS011;45672;51.612;5.536;2023-10-09T12:13:03;21.20;;;8.98;;
59786;SDS011;45672;51.612;5.536;2023-10-09T12:15:31;16.27;;;9.50;;
59786;SDS011;45672;51.612;5.536;2023-10-09T12:18:04;21.52;;;9.40;;
59786;SDS011;45672;51.612;5.536;2023-10-09T12:20:31;18.33;;;8.65;;
59786;SDS011;45672;51.612;5.536;2023-10-09T12:22:57;18.13;;;8.00;;
59786;SDS011;45672;51.612;5.536;2023-10-09T12:25:24;15.40;;;7.90;;
59786;SDS011;45672;51.612;5.536;2023-10-09T12:27:50;14.63;;;7.60;;
59786;SDS011;45672;51.612;5.536;2023-10-09T12:30:15;16.13;;;7.53;;
59786;SDS011;45672;51.612;5.536;2023-10-09T12:32:41;16.48;;;8.00;;
59786;SDS011;45672;51.612;5.536;2023-10-09T12:35:07;15.60;;;7.85;;
59786;SDS011;45672;51.612;5.536;2023-10-09T12:37:42;16.55;;;7.55;;
59786;SDS011;45672;51.612;5.536;2023-10-09T12:40:08;11.50;;;7.43;;
59786;SDS011;45672;51.612;5.536;2023-10-09T12:42:35;12.90;;;7.45;;
59786;SDS011;45672;51.612;5.536;2023-10-09T12:45:01;14.35;;;7.28;;
59786;SDS011;45672;51.612;5.536;2023-10-09T12:47:33;10.18;;;7.18;;
59786;SDS011;45672;51.612;5.536;2023-10-09T12:49:59;17.17;;;7.90;;
59786;SDS011;45672;51.612;5.536;2023-10-09T12:52:24;19.73;;;7.97;;
59786;SDS011;45672;51.612;5.536;2023-10-09T12:54:54;13.90;;;7.75;;
59786;SDS011;45672;51.612;5.536;2023-10-09T12:57:20;19.23;;;8.07;;
59786;SDS011;45672;51.612;5.536;2023-10-09T12:59:46;10.25;;;7.47;;
59786;SDS011;45672;51.612;5.536;2023-10-09T13:02:14;16.70;;;7.45;;
59786;SDS011;45672;51.612;5.536;2023-10-09T13:04:59;18.05;;;7.43;;
59786;SDS011;45672;51.612;5.536;2023-10-09T13:09:50;15.65;;;7.18;;
59786;SDS011;45672;51.612;5.536;2023-10-09T13:12:34;13.82;;;7.18;;
59786;SDS011;45672;51.612;5.536;2023-10-09T13:15:06;14.23;;;7.50;;
59786;SDS011;45672;51.612;5.536;2023-10-09T13:17:35;15.52;;;7.38;;
59786;SDS011;45672;51.612;5.536;2023-10-09T13:20:02;17.15;;;7.70;;
59786;SDS011;45672;51.612;5.536;2023-10-09T13:22:29;14.77;;;7.38;;
59786;SDS011;45672;51.612;5.536;2023-10-09T13:24:55;17.08;;;7.45;;
59786;SDS011;45672;51.612;5.536;2023-10-09T13:27:28;12.60;;;7.15;;
59786;SDS011;45672;51.612;5.536;2023-10-09T13:29:59;11.27;;;6.45;;
59786;SDS011;45672;51.612;5.536;2023-10-09T13:32:30;14.30;;;6.47;;
59786;SDS011;45672;51.612;5.536;2023-10-09T13:35:01;10.30;;;6.57;;
59786;SDS011;45672;51.612;5.536;2023-10-09T13:37:28;11.93;;;7.05;;
59786;SDS011;45672;51.612;5.536;2023-10-09T13:39:56;12.98;;;7.05;;
59786;SDS011;45672;51.612;5.536;2023-10-09T13:42:22;17.48;;;7.55;;
59786;SDS011;45672;51.612;5.536;2023-10-09T13:44:51;11.30;;;7.20;;
59786;SDS011;45672;51.612;5.536;2023-10-09T13:47:18;14.05;;;6.43;;
59786;SDS011;45672;51.612;5.536;2023-10-09T13:49:46;15.63;;;7.40;;
59786;SDS011;45672;51.612;5.536;2023-10-09T13:52:19;14.93;;;7.55;;
59786;SDS011;45672;51.612;5.536;2023-10-09T13:54:46;13.63;;;7.07;;
59786;SDS011;45672;51.612;5.536;2023-10-09T13:57:14;10.02;;;6.50;;
59786;SDS011;45672;51.612;5.536;2023-10-09T13:59:40;14.45;;;6.75;;
59786;SDS011;45672;51.612;5.536;2023-10-09T14:02:14;13.27;;;6.35;;
59786;SDS011;45672;51.612;5.536;2023-10-09T14:04:44;14.45;;;7.18;;
59786;SDS011;45672;51.612;5.536;2023-10-09T14:07:10;11.18;;;6.72;;
59786;SDS011;45672;51.612;5.536;2023-10-09T14:09:36;11.85;;;6.65;;
59786;SDS011;45672;51.612;5.536;2023-10-09T14:12:09;11.38;;;6.35;;
59786;SDS011;45672;51.612;5.536;2023-10-09T14:14:37;14.82;;;6.85;;
59786;SDS011;45672;51.612;5.536;2023-10-09T14:17:08;14.02;;;6.50;;
59786;SDS011;45672;51.612;5.536;2023-10-09T14:19:46;12.40;;;6.50;;
59786;SDS011;45672;51.612;5.536;2023-10-09T14:22:30;10.93;;;6.20;;
59786;SDS011;45672;51.612;5.536;2023-10-09T14:24:56;11.20;;;5.93;;
59786;SDS011;45672;51.612;5.536;2023-10-09T14:27:25;9.50;;;5.88;;
59786;SDS011;45672;51.612;5.536;2023-10-09T14:29:54;10.23;;;5.60;;
59786;SDS011;45672;51.612;5.536;2023-10-09T14:32:26;14.63;;;5.88;;
59786;SDS011;45672;51.612;5.536;2023-10-09T14:34:59;18.35;;;5.93;;
59786;SDS011;45672;51.612;5.536;2023-10-09T14:37:27;11.52;;;6.15;;
59786;SDS011;45672;51.612;5.536;2023-10-09T14:39:53;14.38;;;6.20;;
59786;SDS011;45672;51.612;5.536;2023-10-09T14:42:20;8.40;;;5.60;;
59786;SDS011;45672;51.612;5.536;2023-10-09T14:44:48;13.13;;;5.63;;
59786;SDS011;45672;51.612;5.536;2023-10-09T14:47:15;13.30;;;5.80;;
59786;SDS011;45672;51.612;5.536;2023-10-09T14:49:40;15.32;;;5.80;;
59786;SDS011;45672;51.612;5.536;2023-10-09T14:52:09;11.18;;;5.80;;
59786;SDS011;45672;51.612;5.536;2023-10-09T14:54:35;13.55;;;5.50;;
59786;SDS011;45672;51.612;5.536;2023-10-09T14:57:01;17.10;;;5.88;;
59786;SDS011;45672;51.612;5.536;2023-10-09T14:59:31;9.90;;;5.57;;
59786;SDS011;45672;51.612;5.536;2023-10-09T15:01:59;10.63;;;5.63;;
59786;SDS011;45672;51.612;5.536;2023-10-09T15:04:25;15.45;;;6.30;;
59786;SDS011;45672;51.612;5.536;2023-10-09T15:06:51;13.90;;;5.60;;
59786;SDS011;45672;51.612;5.536;2023-10-09T15:09:20;17.05;;;5.70;;
59786;SDS011;45672;51.612;5.536;2023-10-09T15:11:53;11.80;;;5.57;;
59786;SDS011;45672;51.612;5.536;2023-10-09T15:14:19;15.38;;;6.57;;
59786;SDS011;45672;51.612;5.536;2023-10-09T15:16:44;13.82;;;7.10;;
59786;SDS011;45672;51.612;5.536;2023-10-09T15:19:11;16.05;;;7.38;;
59786;SDS011;45672;51.612;5.536;2023-10-09T15:21:37;20.23;;;6.88;;
59786;SDS011;45672;51.612;5.536;2023-10-09T15:26:34;13.80;;;5.30;;
59786;SDS011;45672;51.612;5.536;2023-10-09T15:29:00;21.75;;;5.85;;
59786;SDS011;45672;51.612;5.536;2023-10-09T15:31:28;13.88;;;5.53;;
59786;SDS011;45672;51.612;5.536;2023-10-09T15:33:56;9.88;;;5.63;;
59786;SDS011;45672;51.612;5.536;2023-10-09T15:36:22;7.80;;;5.35;;
59786;SDS011;45672;51.612;5.536;2023-10-09T15:38:50;14.73;;;5.13;;
59786;SDS011;45672;51.612;5.536;2023-10-09T15:41:16;14.00;;;5.63;;
59786;SDS011;45672;51.612;5.536;2023-10-09T15:43:44;10.32;;;5.60;;
59786;SDS011;45672;51.612;5.536;2023-10-09T15:46:11;9.43;;;5.30;;
59786;SDS011;45672;51.612;5.536;2023-10-09T15:48:41;11.93;;;5.13;;
59786;SDS011;45672;51.612;5.536;2023-10-09T15:51:14;14.75;;;5.25;;
59786;SDS011;45672;51.612;5.536;2023-10-09T15:53:43;10.02;;;5.13;;
59786;SDS011;45672;51.612;5.536;2023-10-09T15:56:09;11.32;;;5.07;;
59786;SDS011;45672;51.612;5.536;2023-10-09T15:58:41;14.57;;;5.75;;
59786;SDS011;45672;51.612;5.536;2023-10-09T16:01:12;11.98;;;5.30;;
59786;SDS011;45672;51.612;5.536;2023-10-09T16:03:41;13.55;;;5.75;;
59786;SDS011;45672;51.612;5.536;2023-10-09T16:06:08;15.77;;;5.80;;
59786;SDS011;45672;51.612;5.536;2023-10-09T16:08:37;15.80;;;6.00;;
59786;SDS011;45672;51.612;5.536;2023-10-09T16:11:06;9.07;;;5.25;;
59786;SDS011;45672;51.612;5.536;2023-10-09T16:13:32;9.25;;;5.10;;
59786;SDS011;45672;51.612;5.536;2023-10-09T16:15:58;25.25;;;5.85;;
59786;SDS011;45672;51.612;5.536;2023-10-09T16:18:27;10.35;;;5.68;;
59786;SDS011;45672;51.612;5.536;2023-10-09T16:20:53;12.60;;;5.75;;
59786;SDS011;45672;51.612;5.536;2023-10-09T16:23:21;14.18;;;5.80;;
59786;SDS011;45672;51.612;5.536;2023-10-09T16:25:47;17.60;;;7.75;;
59786;SDS011;45672;51.612;5.536;2023-10-09T16:28:13;20.65;;;8.45;;
59786;SDS011;45672;51.612;5.536;2023-10-09T16:30:40;20.75;;;8.48;;